KLNK/LNK METAR and TAF weather

Enter ICAO airport designator
Station Type Date Time Source
KLNK METAR 2021/04/13 21:54 UTC NOAA

KLNK 132154Z 30014G24KT 10SM CLR 14/M05 A3017 RMK AO2 SLP220 T01391050


Station Type Date Time Source
KLNK Decoded METAR 2021/04/13 21:54 UTC NOAA

LINCOLN MUNICIPAL AIRPORT, NE, United States (KLNK) 40-50N 96-46W 364M
Apr 13, 2021 - 05:54 PM EDT / 2021.04.13 2154 UTC
Wind: from the WNW (300 degrees) at 16 MPH (14 KT) gusting to 28 MPH (24 KT):0
Visibility: 10 mile(s):0
Sky conditions: clear
Temperature: 57.0 F (13.9 C)
Dew Point: 23.0 F (-5.0 C)
Relative Humidity: 26%
Pressure (altimeter): 30.17 in. Hg (1021 hPa)
ob: KLNK 132154Z 30014G24KT 10SM CLR 14/M05 A3017 RMK AO2 SLP220 T01391050
cycle: 22

Station Type Date Time Source
KLNK TAF 2021/04/13 22:03 UTC NOAA

TAF
AMD KLNK 132201Z 1322/1418 30015G25KT P6SM FEW250
FM140000 31010KT P6SM FEW250
FM140300 32006KT P6SM FEW250
FM141200 32010KT P6SM SCT250
FM141500 32015KT P6SM FEW050 SCT250

Example: see airport list